sensor_id;sensor_type;location;lat;lon;timestamp;P1;durP1;ratioP1;P2;durP2;ratioP2
9364;SDS011;4722;49.340;9.800;2022-12-07T00:01:06;10.48;;;4.68;;
9364;SDS011;4722;49.340;9.800;2022-12-07T00:03:32;7.53;;;4.22;;
9364;SDS011;4722;49.340;9.800;2022-12-07T00:05:58;8.18;;;4.68;;
9364;SDS011;4722;49.340;9.800;2022-12-07T00:08:24;8.77;;;4.45;;
9364;SDS011;4722;49.340;9.800;2022-12-07T00:10:50;6.50;;;3.78;;
9364;SDS011;4722;49.340;9.800;2022-12-07T00:13:16;10.20;;;5.90;;
9364;SDS011;4722;49.340;9.800;2022-12-07T00:15:42;10.40;;;4.97;;
9364;SDS011;4722;49.340;9.800;2022-12-07T00:18:08;8.75;;;4.82;;
9364;SDS011;4722;49.340;9.800;2022-12-07T00:20:34;6.60;;;3.13;;
9364;SDS011;4722;49.340;9.800;2022-12-07T00:23:00;6.60;;;3.13;;
9364;SDS011;4722;49.340;9.800;2022-12-07T00:25:26;7.28;;;4.57;;
9364;SDS011;4722;49.340;9.800;2022-12-07T00:27:52;6.18;;;3.97;;
9364;SDS011;4722;49.340;9.800;2022-12-07T00:30:21;5.93;;;3.20;;
9364;SDS011;4722;49.340;9.800;2022-12-07T00:32:47;6.32;;;3.95;;
9364;SDS011;4722;49.340;9.800;2022-12-07T00:35:13;5.72;;;3.90;;
9364;SDS011;4722;49.340;9.800;2022-12-07T00:37:39;9.05;;;4.03;;
9364;SDS011;4722;49.340;9.800;2022-12-07T00:40:05;10.23;;;3.70;;
9364;SDS011;4722;49.340;9.800;2022-12-07T00:42:31;10.80;;;4.45;;
9364;SDS011;4722;49.340;9.800;2022-12-07T00:44:57;5.22;;;2.58;;
9364;SDS011;4722;49.340;9.800;2022-12-07T00:47:23;5.22;;;3.75;;
9364;SDS011;4722;49.340;9.800;2022-12-07T00:49:49;7.55;;;3.13;;
9364;SDS011;4722;49.340;9.800;2022-12-07T00:52:15;3.60;;;2.53;;
9364;SDS011;4722;49.340;9.800;2022-12-07T00:54:41;5.50;;;2.63;;
9364;SDS011;4722;49.340;9.800;2022-12-07T00:57:07;4.80;;;3.45;;
9364;SDS011;4722;49.340;9.800;2022-12-07T00:59:33;2.50;;;2.17;;
9364;SDS011;4722;49.340;9.800;2022-12-07T01:01:59;4.57;;;2.67;;
9364;SDS011;4722;49.340;9.800;2022-12-07T01:04:25;3.70;;;3.22;;
9364;SDS011;4722;49.340;9.800;2022-12-07T01:06:51;6.80;;;3.35;;
9364;SDS011;4722;49.340;9.800;2022-12-07T01:09:17;7.10;;;3.53;;
9364;SDS011;4722;49.340;9.800;2022-12-07T01:11:43;7.22;;;3.45;;
9364;SDS011;4722;49.340;9.800;2022-12-07T01:14:09;5.75;;;4.38;;
9364;SDS011;4722;49.340;9.800;2022-12-07T01:16:35;7.13;;;4.13;;
9364;SDS011;4722;49.340;9.800;2022-12-07T01:19:01;6.38;;;3.95;;
9364;SDS011;4722;49.340;9.800;2022-12-07T01:21:30;8.48;;;3.58;;
9364;SDS011;4722;49.340;9.800;2022-12-07T01:24:00;7.22;;;3.38;;
9364;SDS011;4722;49.340;9.800;2022-12-07T01:26:27;5.60;;;3.45;;
9364;SDS011;4722;49.340;9.800;2022-12-07T01:28:53;9.27;;;4.65;;
9364;SDS011;4722;49.340;9.800;2022-12-07T01:31:21;6.28;;;3.58;;
9364;SDS011;4722;49.340;9.800;2022-12-07T01:33:48;5.38;;;3.35;;
9364;SDS011;4722;49.340;9.800;2022-12-07T01:36:16;5.80;;;3.45;;
9364;SDS011;4722;49.340;9.800;2022-12-07T01:38:42;5.50;;;3.63;;
9364;SDS011;4722;49.340;9.800;2022-12-07T01:41:08;6.60;;;3.58;;
9364;SDS011;4722;49.340;9.800;2022-12-07T01:43:34;6.38;;;3.47;;
9364;SDS011;4722;49.340;9.800;2022-12-07T01:46:01;8.82;;;3.72;;
9364;SDS011;4722;49.340;9.800;2022-12-07T01:48:31;6.25;;;3.38;;
9364;SDS011;4722;49.340;9.800;2022-12-07T01:51:00;4.32;;;2.45;;
9364;SDS011;4722;49.340;9.800;2022-12-07T01:53:27;8.80;;;4.35;;
9364;SDS011;4722;49.340;9.800;2022-12-07T01:55:54;10.75;;;3.88;;
9364;SDS011;4722;49.340;9.800;2022-12-07T01:58:23;8.63;;;3.83;;
9364;SDS011;4722;49.340;9.800;2022-12-07T02:00:49;7.30;;;3.75;;
9364;SDS011;4722;49.340;9.800;2022-12-07T02:05:41;5.90;;;3.58;;
9364;SDS011;4722;49.340;9.800;2022-12-07T02:08:08;8.52;;;3.28;;
9364;SDS011;4722;49.340;9.800;2022-12-07T02:10:35;6.97;;;3.55;;
9364;SDS011;4722;49.340;9.800;2022-12-07T02:13:15;6.75;;;3.47;;
9364;SDS011;4722;49.340;9.800;2022-12-07T02:15:45;5.60;;;3.67;;
9364;SDS011;4722;49.340;9.800;2022-12-07T02:18:16;5.97;;;3.38;;
9364;SDS011;4722;49.340;9.800;2022-12-07T02:20:46;8.90;;;4.68;;
9364;SDS011;4722;49.340;9.800;2022-12-07T02:23:23;6.10;;;3.75;;
9364;SDS011;4722;49.340;9.800;2022-12-07T02:26:10;9.65;;;4.32;;
9364;SDS011;4722;49.340;9.800;2022-12-07T02:31:31;6.45;;;3.92;;
9364;SDS011;4722;49.340;9.800;2022-12-07T02:34:04;6.75;;;3.78;;
9364;SDS011;4722;49.340;9.800;2022-12-07T02:36:32;11.70;;;5.35;;
9364;SDS011;4722;49.340;9.800;2022-12-07T02:41:30;8.55;;;4.80;;
9364;SDS011;4722;49.340;9.800;2022-12-07T02:43:59;9.85;;;5.38;;
9364;SDS011;4722;49.340;9.800;2022-12-07T02:46:30;7.30;;;4.00;;
9364;SDS011;4722;49.340;9.800;2022-12-07T02:49:02;5.93;;;3.60;;
9364;SDS011;4722;49.340;9.800;2022-12-07T02:51:32;10.55;;;4.57;;
9364;SDS011;4722;49.340;9.800;2022-12-07T02:53:58;8.20;;;5.72;;
9364;SDS011;4722;49.340;9.800;2022-12-07T03:06:53;14.48;;;6.15;;
9364;SDS011;4722;49.340;9.800;2022-12-07T03:09:20;15.32;;;6.90;;
9364;SDS011;4722;49.340;9.800;2022-12-07T03:11:50;9.93;;;5.82;;
9364;SDS011;4722;49.340;9.800;2022-12-07T03:14:25;12.30;;;6.78;;
9364;SDS011;4722;49.340;9.800;2022-12-07T03:16:56;8.13;;;4.82;;
9364;SDS011;4722;49.340;9.800;2022-12-07T03:19:24;13.73;;;5.80;;
9364;SDS011;4722;49.340;9.800;2022-12-07T03:22:12;11.13;;;5.90;;
9364;SDS011;4722;49.340;9.800;2022-12-07T03:27:16;16.15;;;6.80;;
9364;SDS011;4722;49.340;9.800;2022-12-07T03:29:53;11.50;;;5.80;;
9364;SDS011;4722;49.340;9.800;2022-12-07T03:32:23;12.02;;;5.47;;
9364;SDS011;4722;49.340;9.800;2022-12-07T03:37:28;15.55;;;6.00;;
9364;SDS011;4722;49.340;9.800;2022-12-07T03:39:59;9.73;;;5.35;;
9364;SDS011;4722;49.340;9.800;2022-12-07T03:42:27;13.27;;;6.80;;
9364;SDS011;4722;49.340;9.800;2022-12-07T03:44:53;11.18;;;5.18;;
9364;SDS011;4722;49.340;9.800;2022-12-07T03:47:27;8.00;;;4.57;;
9364;SDS011;4722;49.340;9.800;2022-12-07T03:49:59;12.07;;;7.28;;
9364;SDS011;4722;49.340;9.800;2022-12-07T03:55:14;13.25;;;6.07;;
9364;SDS011;4722;49.340;9.800;2022-12-07T03:57:48;8.98;;;4.78;;
9364;SDS011;4722;49.340;9.800;2022-12-07T04:00:17;12.77;;;4.95;;
9364;SDS011;4722;49.340;9.800;2022-12-07T04:02:43;14.60;;;6.45;;
9364;SDS011;4722;49.340;9.800;2022-12-07T04:05:09;17.52;;;7.20;;
9364;SDS011;4722;49.340;9.800;2022-12-07T04:07:35;11.13;;;5.90;;
9364;SDS011;4722;49.340;9.800;2022-12-07T04:10:02;15.80;;;7.35;;
9364;SDS011;4722;49.340;9.800;2022-12-07T04:12:28;11.88;;;6.25;;
9364;SDS011;4722;49.340;9.800;2022-12-07T04:14:54;11.90;;;5.75;;
9364;SDS011;4722;49.340;9.800;2022-12-07T04:17:20;13.52;;;6.82;;
9364;SDS011;4722;49.340;9.800;2022-12-07T04:19:46;14.23;;;6.28;;
9364;SDS011;4722;49.340;9.800;2022-12-07T04:22:12;14.90;;;5.63;;
9364;SDS011;4722;49.340;9.800;2022-12-07T04:24:38;11.88;;;6.30;;
9364;SDS011;4722;49.340;9.800;2022-12-07T04:27:04;15.40;;;6.82;;
9364;SDS011;4722;49.340;9.800;2022-12-07T04:29:30;20.60;;;8.32;;
9364;SDS011;4722;49.340;9.800;2022-12-07T04:31:56;14.23;;;6.18;;
9364;SDS011;4722;49.340;9.800;2022-12-07T04:34:22;16.88;;;8.07;;
9364;SDS011;4722;49.340;9.800;2022-12-07T04:36:48;14.40;;;6.80;;
9364;SDS011;4722;49.340;9.800;2022-12-07T04:39:19;21.13;;;8.00;;
9364;SDS011;4722;49.340;9.800;2022-12-07T04:41:45;20.23;;;7.85;;
9364;SDS011;4722;49.340;9.800;2022-12-07T04:44:11;15.98;;;7.65;;
9364;SDS011;4722;49.340;9.800;2022-12-07T04:46:39;25.95;;;8.82;;
9364;SDS011;4722;49.340;9.800;2022-12-07T04:49:05;16.83;;;7.47;;
9364;SDS011;4722;49.340;9.800;2022-12-07T04:51:31;20.17;;;7.95;;
9364;SDS011;4722;49.340;9.800;2022-12-07T04:53:57;17.10;;;6.75;;
9364;SDS011;4722;49.340;9.800;2022-12-07T04:56:23;16.50;;;7.20;;
9364;SDS011;4722;49.340;9.800;2022-12-07T04:58:50;14.48;;;6.82;;
9364;SDS011;4722;49.340;9.800;2022-12-07T05:01:17;17.25;;;6.68;;
9364;SDS011;4722;49.340;9.800;2022-12-07T05:03:43;15.55;;;7.40;;
9364;SDS011;4722;49.340;9.800;2022-12-07T05:06:09;9.23;;;5.90;;
9364;SDS011;4722;49.340;9.800;2022-12-07T05:08:35;19.55;;;8.73;;
9364;SDS011;4722;49.340;9.800;2022-12-07T05:11:01;12.50;;;7.05;;
9364;SDS011;4722;49.340;9.800;2022-12-07T05:13:27;19.48;;;8.05;;
9364;SDS011;4722;49.340;9.800;2022-12-07T05:15:53;19.85;;;7.72;;
9364;SDS011;4722;49.340;9.800;2022-12-07T05:18:19;19.95;;;8.70;;
9364;SDS011;4722;49.340;9.800;2022-12-07T05:20:46;18.17;;;7.80;;
9364;SDS011;4722;49.340;9.800;2022-12-07T05:23:12;15.00;;;7.35;;
9364;SDS011;4722;49.340;9.800;2022-12-07T05:25:38;17.83;;;7.10;;
9364;SDS011;4722;49.340;9.800;2022-12-07T05:28:04;16.95;;;6.82;;
9364;SDS011;4722;49.340;9.800;2022-12-07T05:30:30;17.63;;;8.00;;
9364;SDS011;4722;49.340;9.800;2022-12-07T05:32:56;19.48;;;6.30;;
9364;SDS011;4722;49.340;9.800;2022-12-07T05:35:22;20.25;;;8.10;;
9364;SDS011;4722;49.340;9.800;2022-12-07T05:37:48;14.93;;;5.97;;
9364;SDS011;4722;49.340;9.800;2022-12-07T05:40:15;18.80;;;7.05;;
9364;SDS011;4722;49.340;9.800;2022-12-07T05:42:41;16.23;;;7.15;;
9364;SDS011;4722;49.340;9.800;2022-12-07T05:45:08;19.02;;;6.70;;
9364;SDS011;4722;49.340;9.800;2022-12-07T05:47:34;16.58;;;7.20;;
9364;SDS011;4722;49.340;9.800;2022-12-07T05:50:00;18.63;;;6.80;;
9364;SDS011;4722;49.340;9.800;2022-12-07T05:52:27;11.70;;;5.95;;
9364;SDS011;4722;49.340;9.800;2022-12-07T05:54:52;16.88;;;7.50;;
9364;SDS011;4722;49.340;9.800;2022-12-07T05:57:19;16.95;;;7.88;;
9364;SDS011;4722;49.340;9.800;2022-12-07T05:59:45;14.02;;;5.60;;
9364;SDS011;4722;49.340;9.800;2022-12-07T06:02:11;14.02;;;6.35;;
9364;SDS011;4722;49.340;9.800;2022-12-07T06:04:39;19.10;;;7.78;;
9364;SDS011;4722;49.340;9.800;2022-12-07T06:07:05;15.63;;;6.30;;
9364;SDS011;4722;49.340;9.800;2022-12-07T06:09:32;13.90;;;6.18;;
9364;SDS011;4722;49.340;9.800;2022-12-07T06:11:58;14.07;;;5.90;;
9364;SDS011;4722;49.340;9.800;2022-12-07T06:14:43;11.65;;;6.43;;
9364;SDS011;4722;49.340;9.800;2022-12-07T06:17:09;11.45;;;6.35;;
9364;SDS011;4722;49.340;9.800;2022-12-07T06:19:37;8.52;;;5.10;;
9364;SDS011;4722;49.340;9.800;2022-12-07T06:22:02;12.40;;;4.85;;
9364;SDS011;4722;49.340;9.800;2022-12-07T06:24:29;13.60;;;6.75;;
9364;SDS011;4722;49.340;9.800;2022-12-07T06:26:55;12.70;;;6.03;;
9364;SDS011;4722;49.340;9.800;2022-12-07T06:29:21;15.10;;;6.35;;
9364;SDS011;4722;49.340;9.800;2022-12-07T06:31:47;8.05;;;4.63;;
9364;SDS011;4722;49.340;9.800;2022-12-07T06:34:14;10.93;;;5.75;;
9364;SDS011;4722;49.340;9.800;2022-12-07T06:36:41;12.80;;;6.53;;
9364;SDS011;4722;49.340;9.800;2022-12-07T06:39:07;12.27;;;5.60;;
9364;SDS011;4722;49.340;9.800;2022-12-07T06:41:34;10.90;;;5.32;;
9364;SDS011;4722;49.340;9.800;2022-12-07T06:44:00;15.80;;;6.85;;
9364;SDS011;4722;49.340;9.800;2022-12-07T06:46:26;10.75;;;5.30;;
9364;SDS011;4722;49.340;9.800;2022-12-07T06:48:52;12.20;;;5.60;;
9364;SDS011;4722;49.340;9.800;2022-12-07T06:51:17;11.13;;;5.63;;
9364;SDS011;4722;49.340;9.800;2022-12-07T06:53:43;9.57;;;5.07;;
9364;SDS011;4722;49.340;9.800;2022-12-07T06:56:09;10.18;;;4.93;;
9364;SDS011;4722;49.340;9.800;2022-12-07T06:58:35;10.55;;;5.20;;
9364;SDS011;4722;49.340;9.800;2022-12-07T07:01:01;13.23;;;5.03;;
9364;SDS011;4722;49.340;9.800;2022-12-07T07:03:28;19.10;;;5.40;;
9364;SDS011;4722;49.340;9.800;2022-12-07T07:05:54;14.38;;;5.78;;
9364;SDS011;4722;49.340;9.800;2022-12-07T07:08:19;12.75;;;5.07;;
9364;SDS011;4722;49.340;9.800;2022-12-07T07:10:47;10.15;;;4.70;;
9364;SDS011;4722;49.340;9.800;2022-12-07T07:13:13;10.75;;;5.70;;
9364;SDS011;4722;49.340;9.800;2022-12-07T07:15:39;11.65;;;5.43;;
9364;SDS011;4722;49.340;9.800;2022-12-07T07:18:05;14.45;;;6.50;;
9364;SDS011;4722;49.340;9.800;2022-12-07T07:20:31;9.80;;;4.82;;
9364;SDS011;4722;49.340;9.800;2022-12-07T07:22:57;14.27;;;6.30;;
9364;SDS011;4722;49.340;9.800;2022-12-07T07:25:23;11.93;;;5.43;;
9364;SDS011;4722;49.340;9.800;2022-12-07T07:27:49;12.35;;;5.88;;
9364;SDS011;4722;49.340;9.800;2022-12-07T07:30:15;16.67;;;6.63;;
9364;SDS011;4722;49.340;9.800;2022-12-07T07:32:41;11.70;;;5.72;;
9364;SDS011;4722;49.340;9.800;2022-12-07T07:35:06;9.68;;;4.85;;
9364;SDS011;4722;49.340;9.800;2022-12-07T07:37:33;11.88;;;6.53;;
9364;SDS011;4722;49.340;9.800;2022-12-07T07:39:59;8.77;;;4.72;;
9364;SDS011;4722;49.340;9.800;2022-12-07T07:42:25;11.30;;;5.90;;
9364;SDS011;4722;49.340;9.800;2022-12-07T07:44:51;10.50;;;5.50;;
9364;SDS011;4722;49.340;9.800;2022-12-07T07:47:17;11.98;;;6.43;;
9364;SDS011;4722;49.340;9.800;2022-12-07T07:49:43;12.32;;;6.30;;
9364;SDS011;4722;49.340;9.800;2022-12-07T07:52:09;13.98;;;6.57;;
9364;SDS011;4722;49.340;9.800;2022-12-07T07:54:35;13.48;;;5.55;;
9364;SDS011;4722;49.340;9.800;2022-12-07T07:57:01;11.73;;;5.43;;
9364;SDS011;4722;49.340;9.800;2022-12-07T07:59:27;10.70;;;5.40;;
9364;SDS011;4722;49.340;9.800;2022-12-07T08:01:53;12.50;;;6.07;;
9364;SDS011;4722;49.340;9.800;2022-12-07T08:04:19;10.30;;;4.50;;
9364;SDS011;4722;49.340;9.800;2022-12-07T08:06:45;11.15;;;4.95;;
9364;SDS011;4722;49.340;9.800;2022-12-07T08:09:11;12.10;;;5.53;;
9364;SDS011;4722;49.340;9.800;2022-12-07T08:11:37;13.25;;;6.63;;
9364;SDS011;4722;49.340;9.800;2022-12-07T08:14:03;10.63;;;5.30;;
9364;SDS011;4722;49.340;9.800;2022-12-07T08:16:29;10.52;;;4.65;;
9364;SDS011;4722;49.340;9.800;2022-12-07T08:18:55;10.38;;;5.28;;
9364;SDS011;4722;49.340;9.800;2022-12-07T08:21:21;10.30;;;5.30;;
9364;SDS011;4722;49.340;9.800;2022-12-07T08:23:47;11.10;;;5.85;;
9364;SDS011;4722;49.340;9.800;2022-12-07T08:26:13;11.20;;;5.05;;
9364;SDS011;4722;49.340;9.800;2022-12-07T08:28:40;13.85;;;5.93;;
9364;SDS011;4722;49.340;9.800;2022-12-07T08:31:14;13.20;;;4.43;;
9364;SDS011;4722;49.340;9.800;2022-12-07T08:33:41;14.82;;;5.35;;
9364;SDS011;4722;49.340;9.800;2022-12-07T08:36:08;8.88;;;4.90;;
9364;SDS011;4722;49.340;9.800;2022-12-07T08:38:35;12.48;;;6.70;;
9364;SDS011;4722;49.340;9.800;2022-12-07T08:41:01;12.07;;;5.97;;
9364;SDS011;4722;49.340;9.800;2022-12-07T08:43:27;9.23;;;5.13;;
9364;SDS011;4722;49.340;9.800;2022-12-07T08:45:55;9.95;;;4.93;;
9364;SDS011;4722;49.340;9.800;2022-12-07T08:48:24;9.50;;;4.65;;
9364;SDS011;4722;49.340;9.800;2022-12-07T08:50:51;10.13;;;4.70;;
9364;SDS011;4722;49.340;9.800;2022-12-07T08:53:17;10.73;;;4.22;;
9364;SDS011;4722;49.340;9.800;2022-12-07T08:55:44;21.58;;;6.88;;
9364;SDS011;4722;49.340;9.800;2022-12-07T08:58:10;13.45;;;7.32;;
9364;SDS011;4722;49.340;9.800;2022-12-07T09:00:36;11.73;;;4.55;;
9364;SDS011;4722;49.340;9.800;2022-12-07T09:03:02;9.65;;;5.20;;
9364;SDS011;4722;49.340;9.800;2022-12-07T09:05:28;10.43;;;5.13;;
9364;SDS011;4722;49.340;9.800;2022-12-07T09:07:55;9.38;;;5.18;;
9364;SDS011;4722;49.340;9.800;2022-12-07T09:10:22;8.63;;;4.22;;
9364;SDS011;4722;49.340;9.800;2022-12-07T09:12:49;9.93;;;5.72;;
9364;SDS011;4722;49.340;9.800;2022-12-07T09:15:15;11.55;;;5.88;;
9364;SDS011;4722;49.340;9.800;2022-12-07T09:17:41;10.70;;;5.25;;
9364;SDS011;4722;49.340;9.800;2022-12-07T09:20:07;9.95;;;5.38;;
9364;SDS011;4722;49.340;9.800;2022-12-07T09:22:33;14.05;;;5.78;;
9364;SDS011;4722;49.340;9.800;2022-12-07T09:24:59;6.88;;;3.95;;
9364;SDS011;4722;49.340;9.800;2022-12-07T09:27:26;8.05;;;4.65;;
9364;SDS011;4722;49.340;9.800;2022-12-07T09:29:52;12.48;;;7.28;;
9364;SDS011;4722;49.340;9.800;2022-12-07T09:32:18;9.38;;;5.38;;
9364;SDS011;4722;49.340;9.800;2022-12-07T09:34:44;11.95;;;5.20;;
9364;SDS011;4722;49.340;9.800;2022-12-07T09:37:10;10.05;;;4.97;;
9364;SDS011;4722;49.340;9.800;2022-12-07T09:39:39;12.82;;;6.63;;
9364;SDS011;4722;49.340;9.800;2022-12-07T09:42:05;9.55;;;5.35;;
9364;SDS011;4722;49.340;9.800;2022-12-07T09:44:32;11.55;;;6.13;;
9364;SDS011;4722;49.340;9.800;2022-12-07T09:46:58;11.55;;;6.47;;
9364;SDS011;4722;49.340;9.800;2022-12-07T09:49:24;10.80;;;5.80;;
9364;SDS011;4722;49.340;9.800;2022-12-07T09:52:26;12.52;;;5.22;;
9364;SDS011;4722;49.340;9.800;2022-12-07T09:54:46;13.95;;;5.85;;
9364;SDS011;4722;49.340;9.800;2022-12-07T09:57:13;14.10;;;6.93;;
9364;SDS011;4722;49.340;9.800;2022-12-07T09:59:39;15.75;;;6.40;;
9364;SDS011;4722;49.340;9.800;2022-12-07T10:02:24;11.52;;;5.47;;
9364;SDS011;4722;49.340;9.800;2022-12-07T10:04:51;13.63;;;5.40;;
9364;SDS011;4722;49.340;9.800;2022-12-07T10:07:17;10.55;;;5.18;;
9364;SDS011;4722;49.340;9.800;2022-12-07T10:09:44;14.80;;;6.65;;
9364;SDS011;4722;49.340;9.800;2022-12-07T10:12:10;9.15;;;5.30;;
9364;SDS011;4722;49.340;9.800;2022-12-07T10:14:38;13.07;;;5.65;;
9364;SDS011;4722;49.340;9.800;2022-12-07T10:19:50;17.55;;;6.05;;
9364;SDS011;4722;49.340;9.800;2022-12-07T10:22:16;11.75;;;5.40;;
9364;SDS011;4722;49.340;9.800;2022-12-07T10:24:43;13.38;;;6.53;;
9364;SDS011;4722;49.340;9.800;2022-12-07T10:27:17;13.43;;;5.15;;
9364;SDS011;4722;49.340;9.800;2022-12-07T10:34:41;10.65;;;5.53;;
9364;SDS011;4722;49.340;9.800;2022-12-07T10:42:15;11.57;;;4.53;;
9364;SDS011;4722;49.340;9.800;2022-12-07T10:44:43;11.02;;;5.20;;
9364;SDS011;4722;49.340;9.800;2022-12-07T10:47:24;11.18;;;4.82;;
9364;SDS011;4722;49.340;9.800;2022-12-07T11:09:50;10.85;;;5.57;;
9364;SDS011;4722;49.340;9.800;2022-12-07T11:12:34;10.98;;;5.00;;
9364;SDS011;4722;49.340;9.800;2022-12-07T11:15:19;12.25;;;5.18;;
9364;SDS011;4722;49.340;9.800;2022-12-07T11:17:49;13.60;;;7.13;;
9364;SDS011;4722;49.340;9.800;2022-12-07T11:23:02;11.40;;;5.85;;
9364;SDS011;4722;49.340;9.800;2022-12-07T11:33:29;14.75;;;6.72;;
9364;SDS011;4722;49.340;9.800;2022-12-07T11:38:41;12.43;;;5.47;;
9364;SDS011;4722;49.340;9.800;2022-12-07T11:41:15;12.65;;;6.43;;
9364;SDS011;4722;49.340;9.800;2022-12-07T11:46:12;11.45;;;5.78;;
9364;SDS011;4722;49.340;9.800;2022-12-07T11:51:12;16.70;;;5.78;;
9364;SDS011;4722;49.340;9.800;2022-12-07T11:53:42;14.45;;;7.15;;
9364;SDS011;4722;49.340;9.800;2022-12-07T11:56:11;17.33;;;6.38;;
9364;SDS011;4722;49.340;9.800;2022-12-07T12:03:45;14.73;;;5.90;;
9364;SDS011;4722;49.340;9.800;2022-12-07T12:06:12;12.00;;;6.20;;
9364;SDS011;4722;49.340;9.800;2022-12-07T12:08:40;15.65;;;6.40;;
9364;SDS011;4722;49.340;9.800;2022-12-07T12:21:44;16.15;;;7.15;;
9364;SDS011;4722;49.340;9.800;2022-12-07T12:24:16;15.40;;;6.93;;
9364;SDS011;4722;49.340;9.800;2022-12-07T12:26:50;12.10;;;5.80;;
9364;SDS011;4722;49.340;9.800;2022-12-07T12:29:22;14.52;;;7.57;;
9364;SDS011;4722;49.340;9.800;2022-12-07T12:32:04;14.70;;;6.65;;
9364;SDS011;4722;49.340;9.800;2022-12-07T12:34:38;19.20;;;6.95;;
9364;SDS011;4722;49.340;9.800;2022-12-07T12:42:48;16.15;;;5.95;;
9364;SDS011;4722;49.340;9.800;2022-12-07T12:45:22;14.38;;;6.35;;
9364;SDS011;4722;49.340;9.800;2022-12-07T12:48:02;15.40;;;5.85;;
9364;SDS011;4722;49.340;9.800;2022-12-07T12:50:32;11.80;;;6.43;;
9364;SDS011;4722;49.340;9.800;2022-12-07T12:53:00;16.48;;;5.68;;
9364;SDS011;4722;49.340;9.800;2022-12-07T13:00:43;10.98;;;4.72;;
9364;SDS011;4722;49.340;9.800;2022-12-07T13:03:21;11.13;;;5.95;;
9364;SDS011;4722;49.340;9.800;2022-12-07T13:06:16;8.90;;;4.20;;
9364;SDS011;4722;49.340;9.800;2022-12-07T13:08:37;18.08;;;6.82;;
9364;SDS011;4722;49.340;9.800;2022-12-07T13:11:18;10.63;;;5.00;;
9364;SDS011;4722;49.340;9.800;2022-12-07T13:13:45;10.73;;;5.22;;
9364;SDS011;4722;49.340;9.800;2022-12-07T13:18:37;14.02;;;4.47;;
9364;SDS011;4722;49.340;9.800;2022-12-07T13:26:06;11.50;;;5.70;;
9364;SDS011;4722;49.340;9.800;2022-12-07T13:28:36;11.68;;;5.10;;
9364;SDS011;4722;49.340;9.800;2022-12-07T13:31:09;13.95;;;5.75;;
9364;SDS011;4722;49.340;9.800;2022-12-07T13:33:37;10.73;;;5.15;;
9364;SDS011;4722;49.340;9.800;2022-12-07T13:36:03;8.77;;;4.70;;
9364;SDS011;4722;49.340;9.800;2022-12-07T13:38:30;9.07;;;4.32;;
9364;SDS011;4722;49.340;9.800;2022-12-07T13:41:04;8.02;;;3.92;;
9364;SDS011;4722;49.340;9.800;2022-12-07T13:46:10;12.63;;;6.22;;
9364;SDS011;4722;49.340;9.800;2022-12-07T13:48:46;10.90;;;5.75;;
9364;SDS011;4722;49.340;9.800;2022-12-07T13:51:18;9.18;;;4.93;;
9364;SDS011;4722;49.340;9.800;2022-12-07T13:53:47;12.15;;;5.18;;
9364;SDS011;4722;49.340;9.800;2022-12-07T13:56:14;15.60;;;5.22;;
9364;SDS011;4722;49.340;9.800;2022-12-07T13:58:41;13.43;;;5.43;;
9364;SDS011;4722;49.340;9.800;2022-12-07T14:01:07;6.85;;;3.83;;
9364;SDS011;4722;49.340;9.800;2022-12-07T14:03:33;12.00;;;5.55;;
9364;SDS011;4722;49.340;9.800;2022-12-07T14:06:25;11.02;;;5.07;;
9364;SDS011;4722;49.340;9.800;2022-12-07T14:11:56;10.25;;;5.07;;
9364;SDS011;4722;49.340;9.800;2022-12-07T14:14:24;10.75;;;5.07;;
9364;SDS011;4722;49.340;9.800;2022-12-07T14:16:55;10.70;;;5.20;;
9364;SDS011;4722;49.340;9.800;2022-12-07T14:24:59;16.15;;;7.05;;
9364;SDS011;4722;49.340;9.800;2022-12-07T14:27:29;24.73;;;8.00;;
9364;SDS011;4722;49.340;9.800;2022-12-07T14:29:58;18.00;;;6.80;;
9364;SDS011;4722;49.340;9.800;2022-12-07T14:32:25;18.00;;;5.35;;
9364;SDS011;4722;49.340;9.800;2022-12-07T14:34:57;9.73;;;5.38;;
9364;SDS011;4722;49.340;9.800;2022-12-07T14:37:23;10.73;;;4.70;;
9364;SDS011;4722;49.340;9.800;2022-12-07T14:39:49;14.05;;;4.75;;
9364;SDS011;4722;49.340;9.800;2022-12-07T14:42:15;13.35;;;5.45;;
9364;SDS011;4722;49.340;9.800;2022-12-07T14:44:41;9.30;;;4.90;;
9364;SDS011;4722;49.340;9.800;2022-12-07T14:47:11;8.00;;;4.53;;
9364;SDS011;4722;49.340;9.800;2022-12-07T14:49:37;9.00;;;4.93;;
9364;SDS011;4722;49.340;9.800;2022-12-07T14:52:03;10.70;;;4.93;;
9364;SDS011;4722;49.340;9.800;2022-12-07T14:54:30;10.27;;;4.20;;
9364;SDS011;4722;49.340;9.800;2022-12-07T14:56:57;7.05;;;4.03;;
9364;SDS011;4722;49.340;9.800;2022-12-07T14:59:23;13.05;;;5.60;;
9364;SDS011;4722;49.340;9.800;2022-12-07T15:01:49;11.38;;;4.90;;
9364;SDS011;4722;49.340;9.800;2022-12-07T15:04:15;12.40;;;5.05;;
9364;SDS011;4722;49.340;9.800;2022-12-07T15:06:41;11.25;;;5.43;;
9364;SDS011;4722;49.340;9.800;2022-12-07T15:09:11;8.38;;;3.90;;
9364;SDS011;4722;49.340;9.800;2022-12-07T15:11:37;9.88;;;4.70;;
9364;SDS011;4722;49.340;9.800;2022-12-07T15:14:03;6.15;;;3.13;;
9364;SDS011;4722;49.340;9.800;2022-12-07T15:16:37;10.20;;;5.45;;
9364;SDS011;4722;49.340;9.800;2022-12-07T15:19:05;8.68;;;4.53;;
9364;SDS011;4722;49.340;9.800;2022-12-07T15:21:31;10.88;;;4.72;;
9364;SDS011;4722;49.340;9.800;2022-12-07T15:23:57;10.10;;;5.30;;
9364;SDS011;4722;49.340;9.800;2022-12-07T15:26:23;12.13;;;5.20;;
9364;SDS011;4722;49.340;9.800;2022-12-07T15:28:49;9.00;;;4.05;;
9364;SDS011;4722;49.340;9.800;2022-12-07T15:31:15;9.73;;;5.00;;
9364;SDS011;4722;49.340;9.800;2022-12-07T15:33:42;10.18;;;4.32;;
9364;SDS011;4722;49.340;9.800;2022-12-07T15:36:08;9.10;;;4.40;;
9364;SDS011;4722;49.340;9.800;2022-12-07T15:38:49;9.63;;;5.03;;
9364;SDS011;4722;49.340;9.800;2022-12-07T15:41:15;12.65;;;4.85;;
9364;SDS011;4722;49.340;9.800;2022-12-07T15:43:41;10.05;;;4.68;;
9364;SDS011;4722;49.340;9.800;2022-12-07T15:46:32;11.20;;;4.82;;
9364;SDS011;4722;49.340;9.800;2022-12-07T15:48:58;13.93;;;5.63;;
9364;SDS011;4722;49.340;9.800;2022-12-07T15:51:25;12.63;;;5.55;;
9364;SDS011;4722;49.340;9.800;2022-12-07T15:53:51;11.32;;;4.63;;
9364;SDS011;4722;49.340;9.800;2022-12-07T15:56:17;10.48;;;5.28;;
9364;SDS011;4722;49.340;9.800;2022-12-07T15:58:43;18.73;;;7.72;;
9364;SDS011;4722;49.340;9.800;2022-12-07T16:01:10;11.98;;;6.30;;
9364;SDS011;4722;49.340;9.800;2022-12-07T16:03:36;8.88;;;4.20;;
9364;SDS011;4722;49.340;9.800;2022-12-07T16:06:02;11.77;;;5.57;;
9364;SDS011;4722;49.340;9.800;2022-12-07T16:08:28;11.30;;;5.60;;
9364;SDS011;4722;49.340;9.800;2022-12-07T16:10:54;11.20;;;5.07;;
9364;SDS011;4722;49.340;9.800;2022-12-07T16:13:19;9.60;;;5.28;;
9364;SDS011;4722;49.340;9.800;2022-12-07T16:15:45;12.73;;;4.82;;
9364;SDS011;4722;49.340;9.800;2022-12-07T16:18:12;8.55;;;4.75;;
9364;SDS011;4722;49.340;9.800;2022-12-07T16:20:38;7.97;;;4.80;;
9364;SDS011;4722;49.340;9.800;2022-12-07T16:23:04;11.48;;;5.78;;
9364;SDS011;4722;49.340;9.800;2022-12-07T16:25:30;9.38;;;4.90;;
9364;SDS011;4722;49.340;9.800;2022-12-07T16:27:56;7.28;;;4.28;;
9364;SDS011;4722;49.340;9.800;2022-12-07T16:30:22;9.38;;;5.18;;
9364;SDS011;4722;49.340;9.800;2022-12-07T16:32:48;15.13;;;5.32;;
9364;SDS011;4722;49.340;9.800;2022-12-07T16:35:14;9.00;;;4.88;;
9364;SDS011;4722;49.340;9.800;2022-12-07T16:37:41;11.15;;;4.90;;
9364;SDS011;4722;49.340;9.800;2022-12-07T16:40:07;9.00;;;4.53;;
9364;SDS011;4722;49.340;9.800;2022-12-07T16:42:34;11.30;;;6.07;;
9364;SDS011;4722;49.340;9.800;2022-12-07T16:45:00;13.30;;;7.13;;
9364;SDS011;4722;49.340;9.800;2022-12-07T16:47:26;12.50;;;6.15;;
9364;SDS011;4722;49.340;9.800;2022-12-07T16:49:52;11.23;;;5.07;;
9364;SDS011;4722;49.340;9.800;2022-12-07T16:52:19;11.02;;;5.32;;
9364;SDS011;4722;49.340;9.800;2022-12-07T16:54:45;10.15;;;5.03;;
9364;SDS011;4722;49.340;9.800;2022-12-07T16:57:11;14.32;;;5.88;;
9364;SDS011;4722;49.340;9.800;2022-12-07T16:59:37;11.52;;;5.68;;
9364;SDS011;4722;49.340;9.800;2022-12-07T17:02:03;11.27;;;5.40;;
9364;SDS011;4722;49.340;9.800;2022-12-07T17:04:31;11.50;;;5.30;;
9364;SDS011;4722;49.340;9.800;2022-12-07T17:06:57;11.98;;;5.90;;
9364;SDS011;4722;49.340;9.800;2022-12-07T17:09:23;10.63;;;5.47;;
9364;SDS011;4722;49.340;9.800;2022-12-07T17:11:49;13.25;;;6.65;;